createdAt,value
2023-02-02T00:00:52.477Z,100.00
2023-02-02T00:02:56.638Z,100.00
2023-02-02T00:05:00.710Z,100.00
2023-02-02T00:07:06.490Z,100.00
2023-02-02T00:09:12.685Z,100.00
2023-02-02T00:11:19.056Z,100.00
2023-02-02T00:13:23.122Z,100.00
2023-02-02T00:15:27.162Z,100.00
2023-02-02T00:17:31.160Z,100.00
2023-02-02T00:19:35.169Z,100.00
2023-02-02T00:21:39.756Z,100.00
2023-02-02T00:23:43.670Z,100.00
2023-02-02T00:25:51.859Z,100.00
2023-02-02T00:27:57.352Z,100.00
2023-02-02T00:30:01.300Z,100.00
2023-02-02T00:32:05.130Z,100.00
2023-02-02T00:34:08.885Z,100.00
2023-02-02T00:36:13.216Z,100.00
2023-02-02T00:38:17.088Z,100.00
2023-02-02T00:40:20.848Z,100.00
2023-02-02T00:42:24.727Z,100.00
2023-02-02T00:44:47.272Z,100.00
2023-02-02T00:46:51.200Z,100.00
2023-02-02T00:48:55.284Z,100.00
2023-02-02T00:50:59.122Z,100.00
2023-02-02T00:53:03.398Z,100.00
2023-02-02T00:55:08.923Z,100.00
2023-02-02T00:57:14.284Z,100.00
2023-02-02T00:59:17.732Z,100.00
2023-02-02T01:01:24.273Z,100.00
2023-02-02T01:03:27.717Z,100.00
2023-02-02T01:05:31.423Z,100.00
2023-02-02T01:07:34.906Z,100.00
2023-02-02T01:09:38.295Z,100.00
2023-02-02T01:11:41.766Z,100.00
2023-02-02T01:13:45.427Z,100.00
2023-02-02T01:15:49.397Z,100.00
2023-02-02T01:17:54.336Z,100.00
2023-02-02T01:19:57.868Z,100.00
2023-02-02T01:22:03.296Z,100.00
2023-02-02T01:24:07.597Z,100.00
2023-02-02T01:26:12.999Z,100.00
2023-02-02T01:28:16.422Z,100.00
2023-02-02T01:30:19.947Z,100.00
2023-02-02T01:32:23.372Z,100.00
2023-02-02T01:34:28.332Z,100.00
2023-02-02T01:36:31.735Z,100.00
2023-02-02T01:38:35.517Z,100.00
2023-02-02T01:40:38.954Z,100.00
2023-02-02T01:42:42.364Z,100.00
2023-02-02T01:45:20.945Z,100.00
2023-02-02T01:47:29.687Z,100.00
2023-02-02T01:49:34.519Z,100.00
2023-02-02T01:51:44.296Z,100.00
2023-02-02T01:53:51.115Z,100.00
2023-02-02T01:55:54.887Z,100.00
2023-02-02T01:58:01.634Z,100.00
2023-02-02T02:00:10.228Z,100.00
2023-02-02T02:02:19.802Z,100.00
2023-02-02T02:04:25.729Z,100.00
2023-02-02T02:06:30.820Z,100.00
2023-02-02T02:08:36.737Z,100.00
2023-02-02T02:10:40.177Z,100.00
2023-02-02T02:12:43.870Z,100.00
2023-02-02T02:15:09.382Z,100.00
2023-02-02T02:17:26.625Z,100.00
2023-02-02T02:20:19.937Z,100.00
2023-02-02T02:22:50.164Z,100.00
2023-02-02T02:25:46.184Z,100.00
2023-02-02T02:28:24.584Z,100.00
2023-02-02T02:31:07.932Z,100.00
2023-02-02T02:33:20.601Z,100.00
2023-02-02T02:35:34.559Z,100.00
2023-02-02T02:37:46.672Z,100.00
2023-02-02T02:39:56.470Z,100.00
2023-02-02T02:42:06.352Z,100.00
2023-02-02T02:44:13.920Z,100.00
2023-02-02T02:46:17.975Z,100.00
2023-02-02T02:48:22.989Z,100.00
2023-02-02T02:50:26.908Z,100.00
2023-02-02T02:52:30.845Z,100.00
2023-02-02T02:54:38.061Z,100.00
2023-02-02T02:56:56.834Z,100.00
2023-02-02T02:59:05.752Z,100.00
2023-02-02T03:01:15.357Z,100.00
2023-02-02T03:03:33.455Z,100.00
2023-02-02T03:05:45.246Z,100.00
2023-02-02T03:07:53.457Z,100.00
2023-02-02T03:09:59.441Z,100.00
2023-02-02T03:12:04.051Z,100.00
2023-02-02T03:14:09.775Z,100.00
2023-02-02T03:16:13.304Z,100.00
2023-02-02T03:18:20.868Z,100.00
2023-02-02T03:20:25.757Z,100.00
2023-02-02T03:22:29.068Z,100.00
2023-02-02T03:24:32.512Z,100.00
2023-02-02T03:26:36.364Z,100.00
2023-02-02T03:28:39.848Z,100.00
2023-02-02T03:30:44.819Z,100.00
2023-02-02T03:32:48.376Z,100.00
2023-02-02T03:34:51.935Z,100.00
2023-02-02T03:36:57.376Z,100.00
2023-02-02T03:39:00.848Z,100.00
2023-02-02T03:41:04.365Z,100.00
2023-02-02T03:43:07.831Z,100.00
2023-02-02T03:45:12.391Z,100.00
2023-02-02T03:47:15.884Z,100.00
2023-02-02T03:49:21.012Z,100.00
2023-02-02T03:51:24.714Z,100.00
2023-02-02T03:53:29.611Z,100.00
2023-02-02T03:55:33.064Z,100.00
2023-02-02T03:57:36.600Z,100.00
2023-02-02T03:59:40.146Z,100.00
2023-02-02T04:01:43.682Z,100.00
2023-02-02T04:03:47.532Z,100.00
2023-02-02T04:05:51.458Z,100.00
2023-02-02T04:07:55.164Z,100.00
2023-02-02T04:09:59.965Z,100.00
2023-02-02T04:12:03.554Z,100.00
2023-02-02T04:14:07.301Z,100.00
2023-02-02T04:16:11.625Z,100.00
2023-02-02T04:18:15.349Z,100.00
2023-02-02T04:20:19.270Z,100.00
2023-02-02T04:22:22.881Z,100.00
2023-02-02T04:24:26.449Z,100.00
2023-02-02T04:26:31.697Z,100.00
2023-02-02T04:28:35.614Z,100.00
2023-02-02T04:30:39.151Z,100.00
2023-02-02T04:32:42.707Z,100.00
2023-02-02T04:34:46.873Z,100.00
2023-02-02T04:36:50.545Z,100.00
2023-02-02T04:38:55.352Z,100.00
2023-02-02T04:40:58.981Z,100.00
2023-02-02T04:43:04.165Z,100.00
2023-02-02T04:45:08.738Z,100.00
2023-02-02T04:47:12.197Z,100.00
2023-02-02T04:49:15.618Z,100.00
2023-02-02T04:51:19.716Z,100.00
2023-02-02T04:53:23.398Z,100.00
2023-02-02T04:55:27.124Z,100.00
2023-02-02T04:57:30.556Z,100.00
2023-02-02T04:59:35.383Z,100.00
2023-02-02T05:01:39.044Z,100.00
2023-02-02T05:03:42.573Z,100.00
2023-02-02T05:05:46.126Z,100.00
2023-02-02T05:07:49.746Z,100.00
2023-02-02T05:09:53.524Z,100.00
2023-02-02T05:11:56.982Z,100.00
2023-02-02T05:14:00.712Z,100.00
2023-02-02T05:16:06.674Z,100.00
2023-02-02T05:18:10.162Z,100.00
2023-02-02T05:20:14.360Z,100.00
2023-02-02T05:22:18.163Z,100.00
2023-02-02T05:24:21.822Z,100.00
2023-02-02T05:26:27.732Z,100.00
2023-02-02T05:28:31.441Z,100.00
2023-02-02T05:30:35.514Z,100.00
2023-02-02T05:32:41.861Z,100.00
2023-02-02T05:34:45.653Z,100.00
2023-02-02T05:36:49.866Z,100.00
2023-02-02T05:38:53.882Z,100.00
2023-02-02T05:40:58.115Z,100.00
2023-02-02T05:43:02.118Z,100.00
2023-02-02T05:45:06.901Z,100.00
2023-02-02T05:47:11.731Z,100.00
2023-02-02T05:49:17.175Z,100.00
2023-02-02T05:51:23.805Z,100.00
2023-02-02T05:53:27.977Z,100.00
2023-02-02T05:55:31.853Z,100.00
2023-02-02T05:57:36.047Z,100.00
2023-02-02T05:59:39.996Z,100.00
2023-02-02T06:01:44.076Z,100.00
2023-02-02T06:03:48.134Z,100.00
2023-02-02T06:05:54.356Z,100.00
2023-02-02T06:07:58.414Z,100.00
2023-02-02T06:10:02.278Z,100.00
2023-02-02T06:12:06.586Z,100.00
2023-02-02T06:14:10.560Z,100.00
2023-02-02T06:16:14.318Z,100.00
2023-02-02T06:18:18.411Z,100.00
2023-02-02T06:20:22.658Z,100.00
2023-02-02T06:22:28.165Z,100.00
2023-02-02T06:24:33.063Z,100.00
2023-02-02T06:26:36.850Z,100.00
2023-02-02T06:28:40.468Z,100.00
2023-02-02T06:30:45.778Z,100.00
2023-02-02T06:32:49.672Z,100.00
2023-02-02T06:34:53.892Z,100.00
2023-02-02T06:36:58.229Z,100.00
2023-02-02T06:39:06.479Z,100.00
2023-02-02T06:41:10.881Z,100.00
2023-02-02T06:43:16.818Z,100.00
2023-02-02T06:45:48.602Z,100.00
2023-02-02T06:48:11.125Z,100.00
2023-02-02T06:50:15.585Z,100.00
2023-02-02T06:52:20.518Z,100.00
2023-02-02T06:54:26.317Z,100.00
2023-02-02T06:56:31.054Z,100.00
2023-02-02T06:58:36.251Z,100.00
2023-02-02T07:00:40.419Z,100.00
2023-02-02T07:02:47.610Z,100.00
2023-02-02T07:04:52.955Z,100.00
2023-02-02T07:06:57.019Z,100.00
2023-02-02T07:09:03.508Z,100.00
2023-02-02T07:11:13.485Z,100.00
2023-02-02T07:13:20.328Z,100.00
2023-02-02T07:15:24.471Z,100.00
2023-02-02T07:17:28.613Z,100.00
2023-02-02T07:19:33.061Z,100.00
2023-02-02T07:21:37.244Z,100.00
2023-02-02T07:23:41.371Z,100.00
2023-02-02T07:25:45.355Z,100.00
2023-02-02T07:27:54.707Z,100.00
2023-02-02T07:29:58.830Z,100.00
2023-02-02T07:32:03.176Z,100.00
2023-02-02T07:34:07.981Z,100.00
2023-02-02T07:36:12.708Z,100.00
2023-02-02T07:38:17.012Z,100.00
2023-02-02T07:40:21.709Z,100.00
2023-02-02T07:42:25.696Z,100.00
2023-02-02T07:44:31.799Z,100.00
2023-02-02T07:46:36.170Z,100.00
2023-02-02T07:48:42.384Z,100.00
2023-02-02T07:50:46.816Z,100.00
2023-02-02T07:52:51.530Z,100.00
2023-02-02T07:55:13.637Z,100.00
2023-02-02T07:57:19.529Z,100.00
2023-02-02T07:59:23.982Z,100.00
2023-02-02T08:01:30.299Z,100.00
2023-02-02T08:03:34.882Z,100.00
2023-02-02T08:05:39.333Z,100.00
2023-02-02T08:07:43.745Z,100.00
2023-02-02T08:09:49.377Z,100.00
2023-02-02T08:11:53.590Z,100.00
2023-02-02T08:13:59.233Z,100.00
2023-02-02T08:16:02.891Z,100.00
2023-02-02T08:18:08.403Z,100.00
2023-02-02T08:20:14.171Z,100.00
2023-02-02T08:22:20.006Z,100.00
2023-02-02T08:24:24.315Z,100.00
2023-02-02T08:26:29.962Z,100.00
2023-02-02T08:28:33.813Z,100.00
2023-02-02T08:30:37.800Z,100.00
2023-02-02T08:32:41.904Z,100.00
2023-02-02T08:34:52.133Z,100.00
2023-02-02T08:36:55.875Z,100.00
2023-02-02T08:39:04.197Z,100.00
2023-02-02T08:41:09.963Z,100.00
2023-02-02T08:43:13.670Z,100.00
2023-02-02T08:46:03.889Z,100.00
2023-02-02T08:47:56.088Z,100.00
2023-02-02T08:50:12.263Z,100.00
2023-02-02T08:52:16.181Z,100.00
2023-02-02T08:54:20.068Z,100.00
2023-02-02T08:56:24.507Z,100.00
2023-02-02T08:58:28.133Z,100.00
2023-02-02T09:00:31.593Z,100.00
2023-02-02T09:02:35.509Z,100.00
2023-02-02T09:04:39.085Z,100.00
2023-02-02T09:06:44.649Z,100.00
2023-02-02T09:08:49.005Z,100.00
2023-02-02T09:10:52.829Z,100.00
2023-02-02T09:12:56.618Z,100.00
2023-02-02T09:15:00.567Z,100.00
2023-02-02T09:17:04.315Z,100.00
2023-02-02T09:19:08.755Z,100.00
2023-02-02T09:21:15.184Z,100.00
2023-02-02T09:23:26.411Z,100.00
2023-02-02T09:25:29.648Z,100.00
2023-02-02T09:27:38.292Z,100.00
2023-02-02T09:29:41.964Z,100.00
2023-02-02T09:31:47.146Z,100.00
2023-02-02T09:33:50.793Z,100.00
2023-02-02T09:35:54.403Z,100.00
2023-02-02T09:37:58.445Z,100.00
2023-02-02T09:40:03.851Z,100.00
2023-02-02T09:42:33.754Z,100.00
2023-02-02T09:44:59.005Z,100.00
2023-02-02T09:47:17.257Z,100.00
2023-02-02T09:49:26.091Z,100.00
2023-02-02T09:51:36.714Z,100.00
2023-02-02T09:53:55.305Z,100.00
2023-02-02T09:56:05.470Z,100.00
2023-02-02T09:58:16.063Z,100.00
2023-02-02T10:00:28.927Z,100.00
2023-02-02T10:02:39.003Z,100.00
2023-02-02T10:04:47.711Z,100.00
2023-02-02T10:06:54.254Z,100.00
2023-02-02T10:09:03.266Z,100.00
2023-02-02T10:11:29.120Z,100.00
2023-02-02T10:13:38.164Z,100.00
2023-02-02T10:15:49.386Z,100.00
2023-02-02T10:17:59.013Z,100.00
2023-02-02T10:20:07.707Z,100.00
2023-02-02T10:22:18.560Z,100.00
2023-02-02T10:24:25.495Z,100.00
2023-02-02T10:26:38.148Z,100.00
2023-02-02T10:28:54.607Z,100.00
2023-02-02T10:31:02.490Z,100.00
2023-02-02T10:33:11.487Z,100.00
2023-02-02T10:35:30.977Z,100.00
2023-02-02T10:37:42.526Z,100.00
2023-02-02T10:40:03.774Z,100.00
2023-02-02T10:42:20.780Z,100.00
2023-02-02T10:44:33.428Z,100.00
2023-02-02T10:46:41.607Z,100.00
2023-02-02T10:48:48.067Z,100.00
2023-02-02T10:50:55.787Z,100.00
2023-02-02T10:53:05.012Z,100.00
2023-02-02T10:55:21.821Z,100.00
2023-02-02T10:57:44.275Z,100.00
2023-02-02T10:59:58.183Z,100.00
2023-02-02T11:02:11.702Z,100.00
2023-02-02T11:04:41.975Z,100.00
2023-02-02T11:06:51.783Z,100.00
2023-02-02T11:08:59.652Z,100.00
2023-02-02T11:11:13.419Z,100.00
2023-02-02T11:13:29.183Z,100.00
2023-02-02T11:15:33.103Z,100.00
2023-02-02T11:17:37.872Z,100.00
2023-02-02T11:19:41.580Z,100.00
2023-02-02T11:21:48.738Z,100.00
2023-02-02T11:24:03.252Z,100.00
2023-02-02T11:26:07.536Z,100.00
2023-02-02T11:28:19.679Z,100.00
2023-02-02T11:30:31.799Z,100.00
2023-02-02T11:32:35.679Z,100.00
2023-02-02T11:34:39.278Z,100.00
2023-02-02T11:36:45.423Z,100.00
2023-02-02T11:38:49.042Z,100.00
2023-02-02T11:40:56.899Z,100.00
2023-02-02T11:43:02.994Z,100.00
2023-02-02T11:45:07.344Z,100.00
2023-02-02T11:47:23.508Z,100.00
2023-02-02T11:49:27.702Z,100.00
2023-02-02T11:51:32.601Z,100.00
2023-02-02T11:53:40.540Z,100.00
2023-02-02T11:55:45.503Z,100.00
2023-02-02T11:58:18.593Z,100.00
2023-02-02T12:00:27.555Z,100.00
2023-02-02T12:02:34.161Z,100.00
2023-02-02T12:04:37.916Z,100.00
2023-02-02T12:06:41.539Z,100.00
2023-02-02T12:08:45.102Z,100.00
2023-02-02T12:10:54.839Z,100.00
2023-02-02T12:13:04.528Z,99.63
2023-02-02T12:15:20.627Z,99.31
2023-02-02T12:17:39.147Z,98.19
2023-02-02T12:20:07.684Z,98.05
2023-02-02T12:22:27.132Z,97.95
2023-02-02T12:24:36.385Z,97.08
2023-02-02T12:26:42.895Z,97.65
2023-02-02T12:29:26.770Z,96.83
2023-02-02T12:31:41.524Z,96.64
2023-02-02T12:33:54.981Z,96.66
2023-02-02T12:36:33.783Z,95.79
2023-02-02T12:38:58.432Z,95.29
2023-02-02T12:41:24.067Z,95.55
2023-02-02T12:43:39.540Z,95.44
2023-02-02T12:46:02.301Z,94.72
2023-02-02T12:48:15.677Z,93.86
2023-02-02T12:50:31.731Z,93.34
2023-02-02T12:52:53.141Z,93.53
2023-02-02T12:55:19.574Z,94.07
2023-02-02T12:57:32.195Z,93.39
2023-02-02T13:00:04.797Z,93.91
2023-02-02T13:02:22.820Z,94.71
2023-02-02T13:04:51.090Z,94.61
2023-02-02T13:07:33.518Z,95.09
2023-02-02T13:09:47.957Z,95.78
2023-02-02T13:11:56.123Z,95.15
2023-02-02T13:14:04.535Z,95.09
2023-02-02T13:16:13.261Z,94.77
2023-02-02T13:18:21.469Z,94.62
2023-02-02T13:20:42.644Z,94.39
2023-02-02T13:22:51.379Z,94.67
2023-02-02T13:25:02.018Z,94.41
2023-02-02T13:27:09.177Z,94.29
2023-02-02T13:29:25.027Z,94.03
2023-02-02T13:31:35.893Z,93.20
2023-02-02T13:33:40.800Z,93.55
2023-02-02T13:35:53.647Z,93.47
2023-02-02T13:38:04.660Z,93.85
2023-02-02T13:40:27.163Z,93.45
2023-02-02T13:42:42.327Z,93.12
2023-02-02T13:44:51.942Z,93.53
2023-02-02T13:47:12.301Z,93.21
2023-02-02T13:49:19.958Z,93.40
2023-02-02T13:51:57.639Z,92.91
2023-02-02T13:54:47.533Z,92.90
2023-02-02T13:57:00.100Z,93.38
2023-02-02T13:59:19.392Z,92.88
2023-02-02T14:01:25.506Z,93.22
2023-02-02T14:03:38.908Z,93.14
2023-02-02T14:05:43.541Z,92.85
2023-02-02T14:07:49.767Z,93.19
2023-02-02T14:09:53.368Z,92.74
2023-02-02T14:12:01.563Z,92.61
2023-02-02T14:14:29.227Z,92.76
2023-02-02T14:16:52.395Z,93.21
2023-02-02T14:18:57.264Z,93.31
2023-02-02T14:21:00.921Z,93.12
2023-02-02T14:23:04.681Z,93.30
2023-02-02T14:25:44.579Z,93.49
2023-02-02T14:28:00.280Z,93.20
2023-02-02T14:30:21.933Z,92.95
2023-02-02T14:32:35.048Z,93.41
2023-02-02T14:34:39.542Z,93.62
2023-02-02T14:36:55.181Z,93.73
2023-02-02T14:39:15.972Z,94.42
2023-02-02T14:41:41.534Z,95.81
2023-02-02T14:43:51.307Z,96.30
2023-02-02T14:46:26.479Z,97.53
2023-02-02T14:48:30.122Z,97.85
2023-02-02T14:50:43.310Z,97.20
2023-02-02T14:52:47.225Z,97.57
2023-02-02T14:54:51.071Z,96.84
2023-02-02T14:56:58.533Z,96.44
2023-02-02T14:59:04.449Z,96.06
2023-02-02T15:01:13.917Z,95.69
2023-02-02T15:03:37.556Z,95.38
2023-02-02T15:05:46.478Z,95.22
2023-02-02T15:07:55.297Z,95.34
2023-02-02T15:09:59.011Z,95.21
2023-02-02T15:12:20.099Z,95.04
2023-02-02T15:14:28.057Z,94.52
2023-02-02T15:16:33.070Z,94.21
2023-02-02T15:18:45.652Z,93.63
2023-02-02T15:20:51.380Z,92.65
2023-02-02T15:23:01.047Z,91.65
2023-02-02T15:25:15.209Z,90.26
2023-02-02T15:27:20.998Z,89.15
2023-02-02T15:29:36.461Z,87.04
2023-02-02T15:31:45.020Z,85.01
2023-02-02T15:33:51.633Z,83.99
2023-02-02T15:35:56.025Z,82.95
2023-02-02T15:38:02.191Z,82.11
2023-02-02T15:40:12.840Z,81.64
2023-02-02T15:42:36.963Z,81.71
2023-02-02T15:44:42.139Z,82.08
2023-02-02T15:46:46.185Z,82.68
2023-02-02T15:49:32.790Z,82.53
2023-02-02T15:51:38.026Z,82.73
2023-02-02T15:53:51.881Z,83.22
2023-02-02T15:55:57.109Z,82.97
2023-02-02T15:58:01.223Z,83.00
2023-02-02T16:00:26.374Z,83.61
2023-02-02T16:02:37.945Z,83.80
2023-02-02T16:04:43.576Z,83.85
2023-02-02T16:06:47.930Z,84.22
2023-02-02T16:08:51.840Z,84.50
2023-02-02T16:11:04.338Z,84.09
2023-02-02T16:13:08.183Z,84.53
2023-02-02T16:15:21.586Z,84.81
2023-02-02T16:17:30.027Z,84.92
2023-02-02T16:19:34.011Z,85.01
2023-02-02T16:21:42.532Z,85.27
2023-02-02T16:23:47.944Z,85.32
2023-02-02T16:25:54.552Z,85.53
2023-02-02T16:28:00.855Z,84.94
2023-02-02T16:30:09.111Z,85.19
2023-02-02T16:32:28.317Z,85.66
2023-02-02T16:34:47.453Z,85.49
2023-02-02T16:37:08.118Z,85.85
2023-02-02T16:39:18.456Z,85.34
2023-02-02T16:41:32.536Z,85.47
2023-02-02T16:43:38.198Z,85.76
2023-02-02T16:45:48.220Z,86.07
2023-02-02T16:47:55.048Z,86.47
2023-02-02T16:50:25.829Z,86.56
2023-02-02T16:52:29.471Z,86.73
2023-02-02T16:54:33.169Z,87.13
2023-02-02T16:56:39.640Z,87.82
2023-02-02T16:58:46.601Z,87.82
2023-02-02T17:01:12.615Z,88.52
2023-02-02T17:03:21.494Z,88.15
2023-02-02T17:05:29.074Z,88.62
2023-02-02T17:07:34.913Z,89.29
2023-02-02T17:09:41.321Z,88.84
2023-02-02T17:11:58.264Z,89.68
2023-02-02T17:14:21.418Z,89.84
2023-02-02T17:16:26.370Z,89.77
2023-02-02T17:18:31.137Z,90.09
2023-02-02T17:20:35.165Z,90.12
2023-02-02T17:22:41.510Z,90.80
2023-02-02T17:24:47.488Z,90.87
2023-02-02T17:26:51.312Z,90.67
2023-02-02T17:28:58.048Z,91.07
2023-02-02T17:31:04.379Z,91.83
2023-02-02T17:33:14.930Z,92.22
2023-02-02T17:35:22.789Z,92.93
2023-02-02T17:37:26.652Z,93.23
2023-02-02T17:39:30.505Z,93.80
2023-02-02T17:41:34.863Z,94.52
2023-02-02T17:43:38.388Z,95.39
2023-02-02T17:45:42.192Z,96.33
2023-02-02T17:47:46.350Z,97.42
2023-02-02T17:49:50.176Z,98.16
2023-02-02T17:51:55.232Z,98.42
2023-02-02T17:54:00.541Z,98.38
2023-02-02T17:56:04.129Z,98.48
2023-02-02T17:58:07.975Z,97.90
2023-02-02T18:00:13.181Z,98.04
2023-02-02T18:02:17.588Z,98.39
2023-02-02T18:04:21.184Z,98.56
2023-02-02T18:06:24.801Z,98.51
2023-02-02T18:08:30.116Z,98.71
2023-02-02T18:10:33.953Z,98.87
2023-02-02T18:12:37.918Z,99.55
2023-02-02T18:14:41.848Z,99.60
2023-02-02T18:16:46.025Z,99.31
2023-02-02T18:18:50.205Z,99.97
2023-02-02T18:20:54.329Z,99.25
2023-02-02T18:22:58.645Z,99.01
2023-02-02T18:25:05.185Z,98.67
2023-02-02T18:27:09.527Z,98.85
2023-02-02T18:29:14.181Z,98.21
2023-02-02T18:31:20.856Z,98.07
2023-02-02T18:33:25.394Z,97.90
2023-02-02T18:35:30.138Z,98.18
2023-02-02T18:37:33.949Z,97.46
2023-02-02T18:39:38.525Z,97.71
2023-02-02T18:41:43.952Z,97.33
2023-02-02T18:43:48.328Z,97.26
2023-02-02T18:46:00.479Z,96.89
2023-02-02T18:48:07.028Z,97.29
2023-02-02T18:50:12.865Z,96.60
2023-02-02T18:52:19.366Z,97.21
2023-02-02T18:54:24.310Z,96.70
2023-02-02T18:56:29.428Z,97.32
2023-02-02T18:58:37.011Z,97.13
2023-02-02T19:00:40.988Z,97.54
2023-02-02T19:02:44.731Z,97.64
2023-02-02T19:05:03.887Z,97.98
2023-02-02T19:07:29.919Z,98.37
2023-02-02T19:09:33.895Z,98.71
2023-02-02T19:11:40.024Z,98.99
2023-02-02T19:13:45.964Z,99.22
2023-02-02T19:15:51.699Z,99.27
2023-02-02T19:17:57.292Z,99.59
2023-02-02T19:20:09.155Z,99.63
2023-02-02T19:22:21.141Z,100.00
2023-02-02T19:24:29.928Z,100.00
2023-02-02T19:26:37.327Z,100.00
2023-02-02T19:28:41.579Z,100.00
2023-02-02T19:30:47.754Z,100.00
2023-02-02T19:32:52.402Z,100.00
2023-02-02T19:34:59.126Z,100.00
2023-02-02T19:37:04.002Z,100.00
2023-02-02T19:39:16.701Z,100.00
2023-02-02T19:41:23.267Z,100.00
2023-02-02T19:43:29.977Z,100.00
2023-02-02T19:45:35.488Z,100.00
2023-02-02T19:47:41.755Z,100.00
2023-02-02T19:49:45.689Z,100.00
2023-02-02T19:51:53.330Z,100.00
2023-02-02T19:54:02.177Z,100.00
2023-02-02T19:56:23.356Z,100.00
2023-02-02T19:58:37.784Z,100.00
2023-02-02T20:00:45.201Z,100.00
2023-02-02T20:03:07.984Z,100.00
2023-02-02T20:05:23.910Z,100.00
2023-02-02T20:07:28.356Z,100.00
2023-02-02T20:09:36.184Z,100.00
2023-02-02T20:11:46.049Z,100.00
2023-02-02T20:13:50.648Z,100.00
2023-02-02T20:16:03.590Z,100.00
2023-02-02T20:18:18.509Z,100.00
2023-02-02T20:20:27.766Z,100.00
2023-02-02T20:22:33.765Z,100.00
2023-02-02T20:24:40.619Z,100.00
2023-02-02T20:26:44.943Z,100.00
2023-02-02T20:28:51.297Z,100.00
2023-02-02T20:30:55.602Z,100.00
2023-02-02T20:33:02.051Z,100.00
2023-02-02T20:35:24.221Z,100.00
2023-02-02T20:37:30.738Z,100.00
2023-02-02T20:39:37.959Z,100.00
2023-02-02T20:41:44.853Z,100.00
2023-02-02T20:43:48.780Z,100.00
2023-02-02T20:45:54.216Z,100.00
2023-02-02T20:48:00.511Z,100.00
2023-02-02T20:50:04.693Z,100.00
2023-02-02T20:52:13.646Z,100.00
2023-02-02T20:54:18.159Z,100.00
2023-02-02T20:56:22.573Z,100.00
2023-02-02T20:58:26.831Z,100.00
2023-02-02T21:00:31.323Z,100.00
2023-02-02T21:02:35.532Z,100.00
2023-02-02T21:04:39.741Z,100.00
2023-02-02T21:06:44.206Z,100.00
2023-02-02T21:08:52.838Z,100.00
2023-02-02T21:10:57.965Z,100.00
2023-02-02T21:13:01.867Z,100.00
2023-02-02T21:15:08.387Z,100.00
2023-02-02T21:17:15.653Z,100.00
2023-02-02T21:19:21.100Z,100.00
2023-02-02T21:21:26.184Z,100.00
2023-02-02T21:23:31.588Z,100.00
2023-02-02T21:25:37.865Z,100.00
2023-02-02T21:27:43.892Z,100.00
2023-02-02T21:29:47.991Z,100.00
2023-02-02T21:31:51.947Z,100.00
2023-02-02T21:33:56.848Z,100.00
2023-02-02T21:36:05.769Z,100.00
2023-02-02T21:38:16.961Z,100.00
2023-02-02T21:40:28.949Z,100.00
2023-02-02T21:42:36.365Z,100.00
2023-02-02T21:44:42.708Z,100.00
2023-02-02T21:46:48.865Z,100.00
2023-02-02T21:48:55.787Z,100.00
2023-02-02T21:51:01.723Z,100.00
2023-02-02T21:53:24.784Z,100.00
2023-02-02T21:55:37.443Z,100.00
2023-02-02T21:57:43.839Z,100.00
2023-02-02T21:59:50.395Z,100.00
2023-02-02T22:01:54.799Z,100.00
2023-02-02T22:03:59.313Z,100.00
2023-02-02T22:06:29.082Z,100.00
2023-02-02T22:08:37.399Z,100.00
2023-02-02T22:10:44.250Z,100.00
2023-02-02T22:12:53.554Z,100.00
2023-02-02T22:15:01.947Z,100.00
2023-02-02T22:17:19.629Z,100.00
2023-02-02T22:19:35.470Z,100.00
2023-02-02T22:21:39.997Z,100.00
2023-02-02T22:23:45.281Z,100.00
2023-02-02T22:25:52.016Z,100.00
2023-02-02T22:28:00.373Z,100.00
2023-02-02T22:30:17.165Z,100.00
2023-02-02T22:32:21.840Z,100.00
2023-02-02T22:34:26.625Z,100.00
2023-02-02T22:36:31.220Z,100.00
2023-02-02T22:38:36.118Z,100.00
2023-02-02T22:40:41.245Z,100.00
2023-02-02T22:42:46.881Z,100.00
2023-02-02T22:44:52.731Z,100.00
2023-02-02T22:46:57.496Z,100.00
2023-02-02T22:49:02.319Z,100.00
2023-02-02T22:51:06.772Z,100.00
2023-02-02T22:53:11.203Z,99.89
2023-02-02T22:55:16.487Z,100.00
2023-02-02T22:57:21.096Z,100.00
2023-02-02T22:59:26.395Z,99.52
2023-02-02T23:01:32.201Z,100.00
2023-02-02T23:03:36.659Z,99.50
2023-02-02T23:05:41.392Z,99.80
2023-02-02T23:07:46.691Z,99.46
2023-02-02T23:09:51.357Z,99.53
2023-02-02T23:11:56.066Z,99.61
2023-02-02T23:14:01.164Z,99.46
2023-02-02T23:16:07.462Z,99.63
2023-02-02T23:18:13.251Z,99.93
2023-02-02T23:20:18.305Z,100.00
2023-02-02T23:22:23.129Z,100.00
2023-02-02T23:24:28.159Z,100.00
2023-02-02T23:26:32.962Z,100.00
2023-02-02T23:28:37.614Z,100.00
2023-02-02T23:30:42.755Z,100.00
2023-02-02T23:32:48.095Z,100.00
2023-02-02T23:34:54.280Z,100.00
2023-02-02T23:36:58.975Z,100.00
2023-02-02T23:39:03.344Z,100.00
2023-02-02T23:41:11.353Z,100.00
2023-02-02T23:43:23.674Z,100.00
2023-02-02T23:45:29.499Z,100.00
2023-02-02T23:47:36.250Z,100.00
2023-02-02T23:49:42.607Z,100.00
2023-02-02T23:51:51.072Z,100.00
2023-02-02T23:53:59.468Z,100.00
2023-02-02T23:56:05.107Z,100.00
2023-02-02T23:58:11.035Z,100.00
